Thursday, February 22, 2018, 10:27 AM GMT
Back to Local

CYOW, Ottawa Int'L. Ont.

Location: , , Canada Lat: 45.317
Local Time: 10:27 AM GMT (10:27 GMT) Lon: -75.667
Time Zone: GMT Elev: 380 ft

Show me the last for .
Show Decoded

2018-02-22 10:00 METAR CYOW 221000Z 01007KT 15SM FEW240 M05/M12 A3068 RMK CI2 SLP398 =
2018-02-22 09:00 METAR CYOW 220900Z 02009KT 15SM SKC M05/M11 A3068 RMK SLP396 =
2018-02-22 08:00 METAR CYOW 220800Z 01010KT 15SM BKN220 M04/M10 A3067 RMK CI6 SLP395 =
2018-02-22 07:00 METAR CYOW 220700Z 01009KT 15SM BKN250 M03/M10 A3067 RMK CI5 SLP395 =
2018-02-22 06:00 METAR CYOW 220600Z 01006KT 15SM SKC M03/M09 A3066 RMK SLP388 =
2018-02-22 05:00 METAR CYOW 220500Z 33003KT 15SM FEW240 M02/M08 A3063 RMK CI2 SLP379 =
2018-02-22 04:00 METAR CYOW 220400Z 35007KT 15SM FEW240 M01/M10 A3060 RMK CI2 SLP370 =

Support USWX by starting your Amazon purchase here.